createdAt,value
2022-10-13T00:01:23.289Z,98154.91
2022-10-13T00:03:52.477Z,98163.19
2022-10-13T00:06:26.070Z,98170.66
2022-10-13T00:08:56.590Z,98168.72
2022-10-13T00:11:27.038Z,98161.56
2022-10-13T00:13:57.411Z,98167.09
2022-10-13T00:16:26.943Z,98167.91
2022-10-13T00:18:55.634Z,98172.63
2022-10-13T00:21:25.911Z,98171.81
2022-10-13T00:23:56.847Z,98180.91
2022-10-13T00:26:26.805Z,98189.19
2022-10-13T00:28:55.777Z,98187.56
2022-10-13T00:31:26.950Z,98191.97
2022-10-13T00:33:55.924Z,98195.53
2022-10-13T00:36:26.154Z,98190.00
2022-10-13T00:38:56.026Z,98201.38
2022-10-13T00:41:24.467Z,98183.16
2022-10-13T00:43:58.174Z,98198.63
2022-10-13T00:46:28.244Z,98188.69
2022-10-13T00:49:03.642Z,98187.56
2022-10-13T00:51:35.703Z,98184.81
2022-10-13T00:54:08.391Z,98187.56
2022-10-13T00:56:38.655Z,98182.03
2022-10-13T00:59:13.386Z,98190.31
2022-10-13T01:01:42.923Z,98180.41
2022-10-13T01:04:13.374Z,98183.16
2022-10-13T01:06:42.427Z,98176.50
2022-10-13T01:09:16.184Z,98180.41
2022-10-13T01:12:03.701Z,98180.41
2022-10-13T01:14:37.533Z,98196.16
2022-10-13T01:17:16.188Z,98195.34
2022-10-13T01:20:01.710Z,98198.13
2022-10-13T01:22:43.677Z,98201.69
2022-10-13T01:25:29.039Z,98188.19
2022-10-13T01:28:19.363Z,98184.28
2022-10-13T01:30:53.131Z,98178.78
2022-10-13T01:33:31.354Z,98189.81
2022-10-13T01:36:15.518Z,98186.25
2022-10-13T01:38:52.018Z,98177.13
2022-10-13T01:41:27.256Z,98175.50
2022-10-13T01:44:02.448Z,98175.50
2022-10-13T01:46:35.534Z,98183.47
2022-10-13T01:49:11.793Z,98169.97
2022-10-13T01:51:41.855Z,98161.69
2022-10-13T01:54:10.501Z,98163.63
2022-10-13T01:56:39.040Z,98168.84
2022-10-13T01:59:11.213Z,98164.44
2022-10-13T02:01:55.726Z,98165.25
2022-10-13T02:04:31.311Z,98159.75
2022-10-13T02:07:05.274Z,98166.09
2022-10-13T02:09:38.833Z,98158.94
2022-10-13T02:12:11.785Z,98160.06
2022-10-13T02:14:43.302Z,98158.09
2022-10-13T02:17:13.776Z,98153.72
2022-10-13T02:19:44.450Z,98147.06
2022-10-13T02:22:16.332Z,98151.75
2022-10-13T02:24:45.160Z,98153.41
2022-10-13T02:27:18.826Z,98153.41
2022-10-13T02:29:52.277Z,98156.16
2022-10-13T02:32:23.056Z,98158.09
2022-10-13T02:34:53.482Z,98158.94
2022-10-13T02:37:21.876Z,98162.81
2022-10-13T02:39:50.309Z,98158.94
2022-10-13T02:42:20.461Z,98159.75
2022-10-13T02:44:49.148Z,98167.22
2022-10-13T02:47:17.608Z,98164.44
2022-10-13T02:49:47.421Z,98163.63
2022-10-13T02:52:15.903Z,98164.44
2022-10-13T02:54:44.293Z,98162.00
2022-10-13T02:57:12.722Z,98163.63
2022-10-13T02:59:45.848Z,98161.19
2022-10-13T03:02:14.287Z,98170.78
2022-10-13T03:04:42.743Z,98170.78
2022-10-13T03:07:12.668Z,98177.13
2022-10-13T03:09:41.061Z,98172.75
2022-10-13T03:12:09.677Z,98171.59
2022-10-13T03:14:38.946Z,98167.22
2022-10-13T03:17:12.475Z,98174.38
2022-10-13T03:19:41.919Z,98166.41
2022-10-13T03:22:15.537Z,98169.16
2022-10-13T03:24:44.311Z,98168.34
2022-10-13T03:27:13.661Z,98165.59
2022-10-13T03:29:42.205Z,98165.59
2022-10-13T03:32:10.872Z,98165.59
2022-10-13T03:34:39.336Z,98162.81
2022-10-13T03:37:07.851Z,98158.94
2022-10-13T03:39:44.262Z,98152.59
2022-10-13T03:42:14.442Z,98151.75
2022-10-13T03:44:42.825Z,98146.25
2022-10-13T03:47:11.273Z,98145.72
2022-10-13T03:49:39.850Z,98149.00
2022-10-13T03:52:08.243Z,98147.06
2022-10-13T03:54:36.724Z,98136.31
2022-10-13T03:57:08.848Z,98135.19
2022-10-13T03:59:37.281Z,98129.66
2022-10-13T04:02:05.838Z,98130.47
2022-10-13T04:04:35.166Z,98124.94
2022-10-13T04:07:03.667Z,98124.13
2022-10-13T04:09:32.224Z,98118.59
2022-10-13T04:12:01.019Z,98124.13
2022-10-13T04:14:30.771Z,98119.75
2022-10-13T04:17:05.400Z,98121.38
2022-10-13T04:19:33.927Z,98120.25
2022-10-13T04:22:07.344Z,98118.59
2022-10-13T04:24:35.958Z,98116.97
2022-10-13T04:27:04.481Z,98116.97
2022-10-13T04:29:34.318Z,98117.78
2022-10-13T04:32:02.799Z,98121.38
2022-10-13T04:34:31.191Z,98119.41
2022-10-13T04:36:59.908Z,98116.97
2022-10-13T04:39:28.325Z,98117.78
2022-10-13T04:41:57.353Z,98111.44
2022-10-13T04:44:25.784Z,98114.22
2022-10-13T04:46:55.546Z,98117.78
2022-10-13T04:49:25.026Z,98112.25
2022-10-13T04:51:53.490Z,98111.44
2022-10-13T04:54:22.042Z,98100.41
2022-10-13T04:56:50.478Z,98105.94
2022-10-13T04:59:19.039Z,98098.75
2022-10-13T05:01:47.451Z,98100.41
2022-10-13T05:04:17.713Z,98104.28
2022-10-13T05:07:12.371Z,98109.81
2022-10-13T05:09:34.548Z,98098.56
2022-10-13T05:12:02.928Z,98100.03
2022-10-13T05:14:33.354Z,98100.03
2022-10-13T05:17:02.045Z,98101.66
2022-10-13T05:19:31.923Z,98098.56
2022-10-13T05:22:00.337Z,98093.88
2022-10-13T05:24:36.497Z,98093.56
2022-10-13T05:27:07.106Z,98090.78
2022-10-13T05:29:35.634Z,98092.75
2022-10-13T05:32:04.108Z,98097.13
2022-10-13T05:34:34.411Z,98097.94
2022-10-13T05:37:02.900Z,98076.66
2022-10-13T05:39:32.109Z,98082.19
2022-10-13T05:42:00.516Z,98081.69
2022-10-13T05:44:29.812Z,98086.72
2022-10-13T05:46:58.494Z,98082.63
2022-10-13T05:49:27.256Z,98090.59
2022-10-13T05:52:00.080Z,98091.72
2022-10-13T05:54:31.827Z,98081.31
2022-10-13T05:57:04.612Z,98083.75
2022-10-13T05:59:38.303Z,98076.91
2022-10-13T06:02:10.004Z,98084.97
2022-10-13T06:04:42.011Z,98081.41
2022-10-13T06:07:12.464Z,98094.13
2022-10-13T06:09:42.971Z,98097.38
2022-10-13T06:12:11.362Z,98093.00
2022-10-13T06:14:39.738Z,98094.31
2022-10-13T06:17:11.509Z,98097.88
2022-10-13T06:19:45.261Z,98095.94
2022-10-13T06:22:15.226Z,98097.75
2022-10-13T06:24:44.002Z,98102.66
2022-10-13T06:27:13.180Z,98091.28
2022-10-13T06:29:41.601Z,98090.97
2022-10-13T06:32:10.062Z,98083.81
2022-10-13T06:34:39.062Z,98072.44
2022-10-13T06:37:07.524Z,98079.94
2022-10-13T06:39:37.388Z,98073.53
2022-10-13T06:42:06.606Z,98072.03
2022-10-13T06:44:39.682Z,98078.66
2022-10-13T06:47:08.126Z,98074.25
2022-10-13T06:49:36.820Z,98079.78
2022-10-13T06:52:05.931Z,98081.41
2022-10-13T06:54:34.450Z,98097.03
2022-10-13T06:57:06.723Z,98099.94
2022-10-13T06:59:35.440Z,98105.69
2022-10-13T07:02:03.864Z,98105.91
2022-10-13T07:04:32.313Z,98106.13
2022-10-13T07:07:00.711Z,98106.34
2022-10-13T07:09:29.296Z,98101.81
2022-10-13T07:11:57.696Z,98100.00
2022-10-13T07:14:27.705Z,98099.59
2022-10-13T07:16:56.440Z,98098.56
2022-10-13T07:19:24.876Z,98102.66
2022-10-13T07:21:53.813Z,98103.47
2022-10-13T07:24:25.599Z,98102.47
2022-10-13T07:26:54.048Z,98097.56
2022-10-13T07:29:22.514Z,98088.78
2022-10-13T07:31:52.292Z,98098.19
2022-10-13T07:34:20.671Z,98094.28
2022-10-13T07:36:49.129Z,98086.50
2022-10-13T07:39:17.528Z,98080.16
2022-10-13T07:41:50.775Z,98083.25
2022-10-13T07:44:19.787Z,98081.06
2022-10-13T07:46:48.346Z,98078.72
2022-10-13T07:49:18.700Z,98073.56
2022-10-13T07:51:47.109Z,98073.16
2022-10-13T07:54:23.702Z,98084.38
2022-10-13T07:56:56.209Z,98082.31
2022-10-13T07:59:24.744Z,98086.41
2022-10-13T08:01:53.274Z,98089.69
2022-10-13T08:04:23.089Z,98081.91
2022-10-13T08:06:51.541Z,98082.41
2022-10-13T08:09:19.985Z,98079.81
2022-10-13T08:11:48.851Z,98079.81
2022-10-13T08:14:17.499Z,98080.03
2022-10-13T08:16:48.763Z,98083.28
2022-10-13T08:19:22.023Z,98073.88
2022-10-13T08:22:00.116Z,98068.34
2022-10-13T08:24:29.446Z,98062.19
2022-10-13T08:26:57.952Z,98070.66
2022-10-13T08:29:26.551Z,98065.97
2022-10-13T08:31:55.670Z,98076.41
2022-10-13T08:34:25.828Z,98069.13
2022-10-13T08:36:56.579Z,98066.88
2022-10-13T08:39:25.941Z,98063.47
2022-10-13T08:41:57.694Z,98063.34
2022-10-13T08:47:38.931Z,98053.56
2022-10-13T08:50:14.233Z,98056.31
2022-10-13T08:52:49.760Z,98058.44
2022-10-13T08:55:28.917Z,98052.28
2022-10-13T08:57:57.616Z,98051.66
2022-10-13T09:00:30.545Z,98044.69
2022-10-13T09:03:08.156Z,98047.94
2022-10-13T09:05:41.188Z,98044.06
2022-10-13T09:08:18.819Z,98036.59
2022-10-13T09:10:49.222Z,98037.09
2022-10-13T09:13:21.295Z,98031.25
2022-10-13T09:15:51.332Z,98032.06
2022-10-13T09:18:20.024Z,98023.78
2022-10-13T09:20:48.524Z,98028.66
2022-10-13T09:23:23.822Z,98027.84
2022-10-13T09:25:55.960Z,98023.13
2022-10-13T09:28:26.775Z,98026.41
2022-10-13T09:31:04.054Z,98024.75
2022-10-13T09:33:36.848Z,98027.53
2022-10-13T09:36:13.606Z,98023.63
2022-10-13T09:38:46.685Z,98020.88
2022-10-13T09:41:20.717Z,98011.44
2022-10-13T09:44:10.750Z,98011.44
2022-10-13T09:46:47.721Z,98014.22
2022-10-13T09:49:37.348Z,98013.06
2022-10-13T09:52:17.728Z,98011.44
2022-10-13T09:54:51.064Z,98016.97
2022-10-13T09:57:27.027Z,98016.97
2022-10-13T10:00:03.677Z,98009.81
2022-10-13T10:02:45.879Z,98012.06
2022-10-13T10:05:24.604Z,98012.06
2022-10-13T10:08:01.964Z,98010.44
2022-10-13T10:10:36.285Z,98003.28
2022-10-13T10:13:11.500Z,98007.19
2022-10-13T10:15:48.571Z,98008.31
2022-10-13T10:18:22.049Z,98001.16
2022-10-13T10:21:03.934Z,98005.06
2022-10-13T10:23:44.202Z,98016.59
2022-10-13T10:26:22.213Z,98012.53
2022-10-13T10:29:13.443Z,98011.72
2022-10-13T10:31:54.406Z,98010.91
2022-10-13T10:34:35.957Z,98021.94
2022-10-13T10:37:17.858Z,98016.44
2022-10-13T10:39:52.023Z,98010.09
2022-10-13T10:42:43.106Z,97997.41
2022-10-13T10:45:18.025Z,97991.88
2022-10-13T10:47:48.971Z,97995.78
2022-10-13T10:50:19.118Z,97996.59
2022-10-13T10:52:56.520Z,97994.13
2022-10-13T10:55:33.845Z,97986.66
2022-10-13T10:58:19.184Z,97988.63
2022-10-13T11:00:57.028Z,97984.72
2022-10-13T11:03:38.330Z,97987.47
2022-10-13T11:06:22.306Z,97977.56
2022-10-13T11:08:51.411Z,97973.66
2022-10-13T11:11:37.726Z,97964.56
2022-10-13T11:14:37.881Z,97960.97
2022-10-13T11:17:19.222Z,97959.34
2022-10-13T11:19:49.335Z,97951.88
2022-10-13T11:22:23.832Z,97955.47
2022-10-13T11:24:55.744Z,97941.97
2022-10-13T11:27:38.635Z,97942.78
2022-10-13T11:30:50.882Z,97938.88
2022-10-13T11:33:53.264Z,97946.84
2022-10-13T11:36:50.717Z,97939.88
2022-10-13T11:39:49.986Z,97940.03
2022-10-13T11:42:55.586Z,97927.53
2022-10-13T11:45:53.130Z,97934.06
2022-10-13T11:48:51.297Z,97937.00
2022-10-13T11:51:32.133Z,97929.19
2022-10-13T11:54:13.344Z,97930.50
2022-10-13T11:56:48.850Z,97919.44
2022-10-13T11:59:22.694Z,97918.81
2022-10-13T12:01:56.402Z,97911.34
2022-10-13T12:04:27.884Z,97906.13
2022-10-13T12:07:02.381Z,97910.84
2022-10-13T12:09:32.643Z,97897.84
2022-10-13T12:12:04.171Z,97902.22
2022-10-13T12:17:25.318Z,97899.63
2022-10-13T12:19:55.618Z,97896.56
2022-10-13T12:22:24.416Z,97892.16
2022-10-13T12:25:01.450Z,97884.34
2022-10-13T12:27:33.009Z,97886.31
2022-10-13T12:30:02.481Z,97884.03
2022-10-13T12:32:35.858Z,97886.47
2022-10-13T12:35:23.868Z,97881.28
2022-10-13T12:37:53.788Z,97876.06
2022-10-13T12:40:23.266Z,97882.72
2022-10-13T12:42:52.026Z,97875.56
2022-10-13T12:45:24.137Z,97879.47
2022-10-13T12:47:55.469Z,97879.47
2022-10-13T12:50:38.882Z,97869.56
2022-10-13T12:53:14.022Z,97876.72
2022-10-13T12:55:52.380Z,97873.94
2022-10-13T12:58:25.179Z,97866.78
2022-10-13T13:00:59.862Z,97868.41
2022-10-13T13:03:31.237Z,97861.25
2022-10-13T13:06:11.700Z,97862.06
2022-10-13T13:08:41.816Z,97860.13
2022-10-13T13:11:22.361Z,97855.72
2022-10-13T13:13:51.143Z,97859.63
2022-10-13T13:16:23.239Z,97846.31
2022-10-13T13:18:53.185Z,97839.16
2022-10-13T13:21:22.274Z,97839.16
2022-10-13T13:23:53.767Z,97839.16
2022-10-13T13:26:24.690Z,97828.09
2022-10-13T13:28:54.932Z,97833.63
2022-10-13T13:31:24.926Z,97828.09
2022-10-13T13:33:55.165Z,97836.38
2022-10-13T13:36:25.676Z,97832.00
2022-10-13T13:38:54.894Z,97832.00
2022-10-13T13:41:24.028Z,97835.56
2022-10-13T13:43:52.498Z,97830.84
2022-10-13T13:46:24.369Z,97825.66
2022-10-13T13:48:53.300Z,97819.31
2022-10-13T13:51:23.220Z,97816.88
2022-10-13T13:53:51.623Z,97829.88
2022-10-13T13:56:21.562Z,97827.09
2022-10-13T13:58:50.089Z,97817.19
2022-10-13T14:01:18.565Z,97818.31
2022-10-13T14:03:47.298Z,97813.59
2022-10-13T14:06:18.749Z,97812.78
2022-10-13T14:08:48.894Z,97813.13
2022-10-13T14:11:17.833Z,97812.78
2022-10-13T14:13:46.362Z,97819.94
2022-10-13T14:16:18.619Z,97815.22
2022-10-13T14:18:47.126Z,97820.13
2022-10-13T14:21:15.718Z,97823.19
2022-10-13T14:23:47.001Z,97822.38
2022-10-13T14:26:16.989Z,97818.81
2022-10-13T14:28:45.976Z,97823.19
2022-10-13T14:31:14.524Z,97823.06
2022-10-13T14:33:43.964Z,97818.00
2022-10-13T14:36:12.398Z,97822.06
2022-10-13T14:38:40.880Z,97820.13
2022-10-13T14:41:10.588Z,97822.91
2022-10-13T14:43:40.565Z,97816.56
2022-10-13T14:46:09.016Z,97810.84
2022-10-13T14:48:38.742Z,97808.09
2022-10-13T14:51:08.060Z,97813.94
2022-10-13T14:53:37.857Z,97810.38
2022-10-13T14:56:19.914Z,97808.91
2022-10-13T14:58:57.057Z,97806.78
2022-10-13T15:01:29.409Z,97801.09
2022-10-13T15:03:57.885Z,97795.88
2022-10-13T15:06:27.244Z,97797.66
2022-10-13T15:08:56.104Z,97800.75
2022-10-13T15:11:26.442Z,97802.06
2022-10-13T15:13:56.389Z,97800.59
2022-10-13T15:16:26.327Z,97802.38
2022-10-13T15:18:55.230Z,97811.50
2022-10-13T15:21:24.932Z,97799.47
2022-10-13T15:23:53.493Z,97799.13
2022-10-13T15:26:22.154Z,97791.00
2022-10-13T15:28:53.232Z,97796.22
2022-10-13T15:31:23.889Z,97803.69
2022-10-13T15:33:54.093Z,97798.50
2022-10-13T15:36:23.600Z,97793.28
2022-10-13T15:38:52.672Z,97798.16
2022-10-13T15:41:23.011Z,97793.78
2022-10-13T15:43:51.631Z,97804.19
2022-10-13T15:46:24.110Z,97805.63
2022-10-13T15:48:55.401Z,97794.09
2022-10-13T15:51:26.729Z,97808.56
2022-10-13T15:53:56.048Z,97798.63
2022-10-13T15:56:24.859Z,97803.19
2022-10-13T15:58:53.829Z,97798.31
2022-10-13T16:01:22.330Z,97806.94
2022-10-13T16:03:55.965Z,97800.41
2022-10-13T16:06:24.814Z,97804.50
2022-10-13T16:08:54.375Z,97790.34
2022-10-13T16:11:24.285Z,97788.72
2022-10-13T16:13:53.363Z,97801.56
2022-10-13T16:16:22.201Z,97794.59
2022-10-13T16:18:51.408Z,97798.31
2022-10-13T16:21:23.328Z,97793.78
2022-10-13T16:23:52.651Z,97798.16
2022-10-13T16:26:22.057Z,97794.91
2022-10-13T16:28:55.411Z,97808.41
2022-10-13T16:31:25.444Z,97804.19
2022-10-13T16:33:53.945Z,97809.53
2022-10-13T16:36:25.158Z,97811.81
2022-10-13T16:38:55.536Z,97815.72
2022-10-13T16:41:24.754Z,97816.84
2022-10-13T16:43:53.432Z,97814.91
2022-10-13T16:46:22.292Z,97811.81
2022-10-13T16:48:50.819Z,97805.16
2022-10-13T16:51:21.042Z,97812.97
2022-10-13T16:53:52.496Z,97819.94
2022-10-13T16:56:22.505Z,97816.69
2022-10-13T16:58:51.845Z,97818.97
2022-10-13T17:01:21.096Z,97828.41
2022-10-13T17:03:51.049Z,97825.63
2022-10-13T17:06:21.889Z,97822.88
2022-10-13T17:08:58.662Z,97828.22
2022-10-13T17:11:29.812Z,97830.66
2022-10-13T17:13:59.679Z,97830.66
2022-10-13T17:16:32.322Z,97829.03
2022-10-13T17:19:00.844Z,97834.56
2022-10-13T17:21:34.852Z,97845.63
2022-10-13T17:24:05.069Z,97845.97
2022-10-13T17:26:34.969Z,97849.22
2022-10-13T17:29:03.494Z,97841.41
2022-10-13T17:31:31.950Z,97844.66
2022-10-13T17:34:00.960Z,97844.03
2022-10-13T17:36:32.200Z,97837.69
2022-10-13T17:39:07.271Z,97830.69
2022-10-13T17:41:38.568Z,97831.50
2022-10-13T17:44:07.080Z,97845.00
2022-10-13T17:46:38.023Z,97833.94
2022-10-13T17:49:08.017Z,97822.91
2022-10-13T17:51:36.870Z,97830.06
2022-10-13T17:54:10.278Z,97837.22
2022-10-13T17:56:43.230Z,97831.69
2022-10-13T17:59:11.692Z,97830.06
2022-10-13T18:01:41.913Z,97819.00
2022-10-13T18:04:14.349Z,97827.28
2022-10-13T18:06:44.670Z,97824.53
2022-10-13T18:09:20.156Z,97831.69
2022-10-13T18:11:51.566Z,97820.63
2022-10-13T18:14:20.821Z,97813.47
2022-10-13T18:16:50.496Z,97815.09
2022-10-13T18:19:19.027Z,97819.00
2022-10-13T18:21:47.765Z,97820.63
2022-10-13T18:24:18.138Z,97830.06
2022-10-13T18:26:47.336Z,97826.16
2022-10-13T18:29:15.899Z,97824.53
2022-10-13T18:31:44.344Z,97828.41
2022-10-13T18:34:14.938Z,97831.19
2022-10-13T18:36:46.977Z,97828.41
2022-10-13T18:39:18.879Z,97831.19
2022-10-13T18:41:49.937Z,97834.28
2022-10-13T18:44:18.993Z,97839.00
2022-10-13T18:46:50.120Z,97840.13
2022-10-13T18:49:20.537Z,97846.78
2022-10-13T18:51:50.976Z,97845.16
2022-10-13T18:54:20.762Z,97846.31
2022-10-13T18:56:49.281Z,97843.84
2022-10-13T18:59:17.887Z,97832.00
2022-10-13T19:01:46.513Z,97828.41
2022-10-13T19:04:16.664Z,97828.72
2022-10-13T19:06:46.312Z,97828.72
2022-10-13T19:09:17.301Z,97829.88
2022-10-13T19:11:47.113Z,97832.63
2022-10-13T19:14:17.864Z,97834.91
2022-10-13T19:16:46.454Z,97830.19
2022-10-13T19:19:15.238Z,97834.91
2022-10-13T19:21:43.681Z,97830.19
2022-10-13T19:24:12.874Z,97824.97
2022-10-13T19:26:41.352Z,97822.22
2022-10-13T19:29:12.912Z,97822.22
2022-10-13T19:31:42.473Z,97820.59
2022-10-13T19:34:12.039Z,97826.94
2022-10-13T19:36:43.611Z,97816.69
2022-10-13T19:39:15.294Z,97807.25
2022-10-13T19:41:45.408Z,97817.50
2022-10-13T19:44:16.822Z,97821.41
2022-10-13T19:46:46.786Z,97822.22
2022-10-13T19:49:19.092Z,97824.97
2022-10-13T19:51:49.024Z,97828.56
2022-10-13T19:54:19.345Z,97829.38
2022-10-13T19:56:50.441Z,97833.28
2022-10-13T19:59:21.032Z,97824.16
2022-10-13T20:01:49.560Z,97826.13
2022-10-13T20:04:20.416Z,97827.75
2022-10-13T20:06:50.174Z,97829.69
2022-10-13T20:09:19.425Z,97824.50
2022-10-13T20:11:49.209Z,97821.72
2022-10-13T20:14:18.508Z,97822.88
2022-10-13T20:16:49.551Z,97825.63
2022-10-13T20:19:19.457Z,97821.25
2022-10-13T20:21:51.483Z,97826.78
2022-10-13T20:24:20.462Z,97821.25
2022-10-13T20:26:49.118Z,97830.66
2022-10-13T20:29:22.887Z,97836.19
2022-10-13T20:31:52.697Z,97840.91
2022-10-13T20:34:21.397Z,97838.97
2022-10-13T20:36:50.891Z,97835.69
2022-10-13T20:39:19.399Z,97845.63
2022-10-13T20:41:48.032Z,97840.09
2022-10-13T20:44:16.550Z,97847.56
2022-10-13T20:46:45.335Z,97844.00
2022-10-13T20:49:15.178Z,97845.94
2022-10-13T20:51:44.373Z,97855.03
2022-10-13T20:54:15.029Z,97860.56
2022-10-13T20:56:44.045Z,97862.84
2022-10-13T20:59:14.473Z,97854.22
2022-10-13T21:01:43.500Z,97865.59
2022-10-13T21:04:12.203Z,97851.78
2022-10-13T21:06:42.482Z,97853.75
2022-10-13T21:09:11.874Z,97854.56
2022-10-13T21:11:44.220Z,97850.16
2022-10-13T21:14:13.465Z,97855.69
2022-10-13T21:16:42.167Z,97850.16
2022-10-13T21:19:10.756Z,97845.44
2022-10-13T21:21:39.372Z,97847.41
2022-10-13T21:24:10.820Z,97847.06
2022-10-13T21:26:40.225Z,97850.16
2022-10-13T21:29:13.932Z,97858.94
2022-10-13T21:31:42.393Z,97859.25
2022-10-13T21:34:11.336Z,97856.50
2022-10-13T21:36:44.046Z,97850.16
2022-10-13T21:39:14.577Z,97849.34
2022-10-13T21:41:43.043Z,97859.59
2022-10-13T21:44:13.539Z,97859.59
2022-10-13T21:46:42.043Z,97861.22
2022-10-13T21:49:10.933Z,97865.94
2022-10-13T21:51:41.308Z,97868.69
2022-10-13T21:54:11.218Z,97865.13
2022-10-13T21:56:42.093Z,97862.34
2022-10-13T21:59:12.398Z,97869.50
2022-10-13T22:01:41.123Z,97871.47
2022-10-13T22:04:15.213Z,97865.94
2022-10-13T22:06:44.460Z,97857.97
2022-10-13T22:09:13.402Z,97865.13
2022-10-13T22:11:44.247Z,97858.78
2022-10-13T22:14:13.468Z,97853.25
2022-10-13T22:16:44.139Z,97852.44
2022-10-13T22:19:12.962Z,97856.34
2022-10-13T22:21:43.824Z,97857.97
2022-10-13T22:24:14.526Z,97857.16
2022-10-13T22:26:45.537Z,97857.97
2022-10-13T22:29:15.676Z,97855.53
2022-10-13T22:31:44.895Z,97864.63
2022-10-13T22:34:15.033Z,97865.44
2022-10-13T22:36:45.276Z,97860.22
2022-10-13T22:39:14.759Z,97870.16
2022-10-13T22:41:45.150Z,97858.28
2022-10-13T22:44:14.772Z,97868.19
2022-10-13T22:46:43.167Z,97870.97
2022-10-13T22:49:15.076Z,97872.91
2022-10-13T22:51:43.483Z,97874.53
2022-10-13T22:54:13.204Z,97874.53
2022-10-13T22:56:42.584Z,97880.06
2022-10-13T22:59:13.717Z,97871.78
2022-10-13T23:01:42.394Z,97876.00
2022-10-13T23:04:10.845Z,97878.44
2022-10-13T23:06:39.275Z,97869.00
2022-10-13T23:09:11.261Z,97869.34
2022-10-13T23:11:40.921Z,97870.97
2022-10-13T23:14:13.661Z,97870.16
2022-10-13T23:16:42.060Z,97872.59
2022-10-13T23:19:10.475Z,97869.00
2022-10-13T23:21:38.933Z,97863.50
2022-10-13T23:24:08.272Z,97867.38
2022-10-13T23:26:36.933Z,97868.19
2022-10-13T23:29:05.816Z,97871.78
2022-10-13T23:31:35.590Z,97872.91
2022-10-13T23:34:04.002Z,97873.72
2022-10-13T23:36:33.713Z,97863.00
2022-10-13T23:39:04.457Z,97858.28
2022-10-13T23:41:33.924Z,97857.47
2022-10-13T23:44:02.432Z,97856.34
2022-10-13T23:46:30.923Z,97854.69
2022-10-13T23:49:00.696Z,97848.03
2022-10-13T23:51:29.166Z,97859.09
2022-10-13T23:53:57.877Z,97854.69
2022-10-13T23:56:26.310Z,97842.03
2022-10-13T23:58:54.760Z,97853.06
